sensor_id;sensor_type;location;lat;lon;timestamp;temperature;humidity
3758;DHT22;1894;51.038;13.692;2022-09-02T00:01:53;11.70;99.90
3758;DHT22;1894;51.038;13.692;2022-09-02T00:04:23;11.70;99.90
3758;DHT22;1894;51.038;13.692;2022-09-02T00:06:53;11.70;99.90
3758;DHT22;1894;51.038;13.692;2022-09-02T00:09:23;11.70;99.90
3758;DHT22;1894;51.038;13.692;2022-09-02T00:11:53;11.70;99.90
3758;DHT22;1894;51.038;13.692;2022-09-02T00:14:28;11.80;99.90
3758;DHT22;1894;51.038;13.692;2022-09-02T00:16:58;11.70;99.90
3758;DHT22;1894;51.038;13.692;2022-09-02T00:19:28;11.70;99.90
3758;DHT22;1894;51.038;13.692;2022-09-02T00:21:57;11.70;99.90
3758;DHT22;1894;51.038;13.692;2022-09-02T00:24:25;11.60;99.90
3758;DHT22;1894;51.038;13.692;2022-09-02T00:26:53;11.50;99.90
3758;DHT22;1894;51.038;13.692;2022-09-02T00:29:24;11.50;99.90
3758;DHT22;1894;51.038;13.692;2022-09-02T00:31:52;11.40;99.90
3758;DHT22;1894;51.038;13.692;2022-09-02T00:34:19;11.40;99.90
3758;DHT22;1894;51.038;13.692;2022-09-02T00:36:46;11.40;99.90
3758;DHT22;1894;51.038;13.692;2022-09-02T00:39:14;11.40;99.90
3758;DHT22;1894;51.038;13.692;2022-09-02T00:41:42;11.40;99.90
3758;DHT22;1894;51.038;13.692;2022-09-02T00:44:12;11.40;99.90
3758;DHT22;1894;51.038;13.692;2022-09-02T00:46:41;11.40;99.90
3758;DHT22;1894;51.038;13.692;2022-09-02T00:52:02;11.40;99.90
3758;DHT22;1894;51.038;13.692;2022-09-02T00:54:38;11.30;99.90
3758;DHT22;1894;51.038;13.692;2022-09-02T00:57:10;11.30;99.90
3758;DHT22;1894;51.038;13.692;2022-09-02T00:59:56;11.20;99.90
3758;DHT22;1894;51.038;13.692;2022-09-02T01:02:32;11.20;99.90
3758;DHT22;1894;51.038;13.692;2022-09-02T01:05:00;11.10;99.90
3758;DHT22;1894;51.038;13.692;2022-09-02T01:07:33;11.10;99.90
3758;DHT22;1894;51.038;13.692;2022-09-02T01:10:04;11.10;99.90
3758;DHT22;1894;51.038;13.692;2022-09-02T01:12:34;11.00;99.90
3758;DHT22;1894;51.038;13.692;2022-09-02T01:15:04;11.10;99.90
3758;DHT22;1894;51.038;13.692;2022-09-02T01:17:32;11.00;99.90
3758;DHT22;1894;51.038;13.692;2022-09-02T01:20:07;11.00;99.90
3758;DHT22;1894;51.038;13.692;2022-09-02T01:22:39;11.10;99.90
3758;DHT22;1894;51.038;13.692;2022-09-02T01:25:19;11.10;99.90
3758;DHT22;1894;51.038;13.692;2022-09-02T01:27:49;11.00;99.90
3758;DHT22;1894;51.038;13.692;2022-09-02T01:30:22;11.10;99.90
3758;DHT22;1894;51.038;13.692;2022-09-02T01:32:51;11.10;99.90
3758;DHT22;1894;51.038;13.692;2022-09-02T01:35:19;11.00;99.90
3758;DHT22;1894;51.038;13.692;2022-09-02T01:37:46;11.00;99.90
3758;DHT22;1894;51.038;13.692;2022-09-02T01:40:23;10.90;99.90
3758;DHT22;1894;51.038;13.692;2022-09-02T01:42:59;10.90;99.90
3758;DHT22;1894;51.038;13.692;2022-09-02T01:45:33;10.90;99.90
3758;DHT22;1894;51.038;13.692;2022-09-02T01:48:05;10.90;99.90
3758;DHT22;1894;51.038;13.692;2022-09-02T01:50:35;10.90;99.90
3758;DHT22;1894;51.038;13.692;2022-09-02T01:53:11;10.80;99.90
3758;DHT22;1894;51.038;13.692;2022-09-02T01:55:38;10.80;99.90
3758;DHT22;1894;51.038;13.692;2022-09-02T01:58:05;10.80;99.90
3758;DHT22;1894;51.038;13.692;2022-09-02T02:00:33;10.80;99.90
3758;DHT22;1894;51.038;13.692;2022-09-02T02:03:00;10.70;99.90
3758;DHT22;1894;51.038;13.692;2022-09-02T02:05:29;10.70;99.90
3758;DHT22;1894;51.038;13.692;2022-09-02T02:07:58;10.60;99.90
3758;DHT22;1894;51.038;13.692;2022-09-02T02:10:26;10.60;99.90
3758;DHT22;1894;51.038;13.692;2022-09-02T02:12:53;10.60;99.90
3758;DHT22;1894;51.038;13.692;2022-09-02T02:15:23;10.60;99.90
3758;DHT22;1894;51.038;13.692;2022-09-02T02:17:49;10.60;99.90
3758;DHT22;1894;51.038;13.692;2022-09-02T02:20:20;10.60;99.90
3758;DHT22;1894;51.038;13.692;2022-09-02T02:22:48;10.60;99.90
3758;DHT22;1894;51.038;13.692;2022-09-02T02:25:15;10.60;99.90
3758;DHT22;1894;51.038;13.692;2022-09-02T02:27:48;10.60;99.90
3758;DHT22;1894;51.038;13.692;2022-09-02T02:30:16;10.60;99.90
3758;DHT22;1894;51.038;13.692;2022-09-02T02:32:44;10.50;99.90
3758;DHT22;1894;51.038;13.692;2022-09-02T02:35:17;10.50;99.90
3758;DHT22;1894;51.038;13.692;2022-09-02T02:37:47;10.50;99.90
3758;DHT22;1894;51.038;13.692;2022-09-02T02:40:21;10.50;99.90
3758;DHT22;1894;51.038;13.692;2022-09-02T02:42:51;10.50;99.90
3758;DHT22;1894;51.038;13.692;2022-09-02T02:45:22;10.50;99.90
3758;DHT22;1894;51.038;13.692;2022-09-02T02:47:50;10.50;99.90
3758;DHT22;1894;51.038;13.692;2022-09-02T02:50:21;10.50;99.90
3758;DHT22;1894;51.038;13.692;2022-09-02T02:52:50;10.50;99.90
3758;DHT22;1894;51.038;13.692;2022-09-02T02:55:22;10.50;99.90
3758;DHT22;1894;51.038;13.692;2022-09-02T02:57:51;10.40;99.90
3758;DHT22;1894;51.038;13.692;2022-09-02T03:00:24;10.50;99.90
3758;DHT22;1894;51.038;13.692;2022-09-02T03:02:59;10.50;99.90
3758;DHT22;1894;51.038;13.692;2022-09-02T03:05:30;10.50;99.90
3758;DHT22;1894;51.038;13.692;2022-09-02T03:07:58;10.40;99.90
3758;DHT22;1894;51.038;13.692;2022-09-02T03:10:25;10.40;99.90
3758;DHT22;1894;51.038;13.692;2022-09-02T03:12:53;10.50;99.90
3758;DHT22;1894;51.038;13.692;2022-09-02T03:15:21;10.50;99.90
3758;DHT22;1894;51.038;13.692;2022-09-02T03:17:51;10.40;99.90
3758;DHT22;1894;51.038;13.692;2022-09-02T03:20:20;10.40;99.90
3758;DHT22;1894;51.038;13.692;2022-09-02T03:22:53;10.40;99.90
3758;DHT22;1894;51.038;13.692;2022-09-02T03:25:23;10.40;99.90
3758;DHT22;1894;51.038;13.692;2022-09-02T03:27:54;10.40;99.90
3758;DHT22;1894;51.038;13.692;2022-09-02T03:30:27;10.30;99.90
3758;DHT22;1894;51.038;13.692;2022-09-02T03:32:58;10.30;99.90
3758;DHT22;1894;51.038;13.692;2022-09-02T03:35:32;10.20;99.90
3758;DHT22;1894;51.038;13.692;2022-09-02T03:38:00;10.20;99.90
3758;DHT22;1894;51.038;13.692;2022-09-02T03:40:28;10.20;99.90
3758;DHT22;1894;51.038;13.692;2022-09-02T03:42:56;10.20;99.90
3758;DHT22;1894;51.038;13.692;2022-09-02T03:45:27;10.10;99.90
3758;DHT22;1894;51.038;13.692;2022-09-02T03:47:56;10.10;99.90
3758;DHT22;1894;51.038;13.692;2022-09-02T03:50:32;10.10;99.90
3758;DHT22;1894;51.038;13.692;2022-09-02T03:53:03;10.00;99.90
3758;DHT22;1894;51.038;13.692;2022-09-02T03:55:31;10.10;99.90
3758;DHT22;1894;51.038;13.692;2022-09-02T03:57:59;10.00;99.90
3758;DHT22;1894;51.038;13.692;2022-09-02T04:00:28;10.00;99.90
3758;DHT22;1894;51.038;13.692;2022-09-02T04:03:00;10.00;99.90
3758;DHT22;1894;51.038;13.692;2022-09-02T04:05:29;10.00;99.90
3758;DHT22;1894;51.038;13.692;2022-09-02T04:07:59;10.00;99.90
3758;DHT22;1894;51.038;13.692;2022-09-02T04:10:27;9.90;99.90
3758;DHT22;1894;51.038;13.692;2022-09-02T04:12:55;9.90;99.90
3758;DHT22;1894;51.038;13.692;2022-09-02T04:15:22;9.90;99.90
3758;DHT22;1894;51.038;13.692;2022-09-02T04:17:50;9.90;99.90
3758;DHT22;1894;51.038;13.692;2022-09-02T04:20:19;9.90;99.90
3758;DHT22;1894;51.038;13.692;2022-09-02T04:22:46;9.90;99.90
3758;DHT22;1894;51.038;13.692;2022-09-02T04:25:16;9.90;99.90
3758;DHT22;1894;51.038;13.692;2022-09-02T04:27:45;9.90;99.90
3758;DHT22;1894;51.038;13.692;2022-09-02T04:30:12;9.90;99.90
3758;DHT22;1894;51.038;13.692;2022-09-02T04:32:43;9.90;99.90
3758;DHT22;1894;51.038;13.692;2022-09-02T04:35:11;9.90;99.90
3758;DHT22;1894;51.038;13.692;2022-09-02T04:37:38;9.90;99.90
3758;DHT22;1894;51.038;13.692;2022-09-02T04:40:07;9.90;99.90
3758;DHT22;1894;51.038;13.692;2022-09-02T04:42:35;10.00;99.90
3758;DHT22;1894;51.038;13.692;2022-09-02T04:45:04;10.00;99.90
3758;DHT22;1894;51.038;13.692;2022-09-02T04:47:32;10.10;99.90
3758;DHT22;1894;51.038;13.692;2022-09-02T04:50:00;10.10;99.90
3758;DHT22;1894;51.038;13.692;2022-09-02T04:52:29;10.20;99.90
3758;DHT22;1894;51.038;13.692;2022-09-02T04:54:58;10.20;99.90
3758;DHT22;1894;51.038;13.692;2022-09-02T04:57:28;10.30;99.90
3758;DHT22;1894;51.038;13.692;2022-09-02T04:59:55;10.30;99.90
3758;DHT22;1894;51.038;13.692;2022-09-02T05:02:23;10.40;99.90
3758;DHT22;1894;51.038;13.692;2022-09-02T05:04:50;10.40;99.90
3758;DHT22;1894;51.038;13.692;2022-09-02T05:07:26;10.40;99.90
3758;DHT22;1894;51.038;13.692;2022-09-02T05:09:57;10.50;99.90
3758;DHT22;1894;51.038;13.692;2022-09-02T05:12:31;10.50;99.90
3758;DHT22;1894;51.038;13.692;2022-09-02T05:15:01;10.60;99.90
3758;DHT22;1894;51.038;13.692;2022-09-02T05:17:31;10.60;99.90
3758;DHT22;1894;51.038;13.692;2022-09-02T05:19:59;10.70;99.90
3758;DHT22;1894;51.038;13.692;2022-09-02T05:22:28;10.80;99.90
3758;DHT22;1894;51.038;13.692;2022-09-02T05:24:58;10.90;99.90
3758;DHT22;1894;51.038;13.692;2022-09-02T05:27:27;11.00;99.90
3758;DHT22;1894;51.038;13.692;2022-09-02T05:29:56;11.10;99.90
3758;DHT22;1894;51.038;13.692;2022-09-02T05:32:26;11.20;99.90
3758;DHT22;1894;51.038;13.692;2022-09-02T05:34:55;11.40;99.90
3758;DHT22;1894;51.038;13.692;2022-09-02T05:37:22;11.50;99.90
3758;DHT22;1894;51.038;13.692;2022-09-02T05:39:50;11.60;99.90
3758;DHT22;1894;51.038;13.692;2022-09-02T05:42:19;11.70;99.90
3758;DHT22;1894;51.038;13.692;2022-09-02T05:44:49;11.90;99.90
3758;DHT22;1894;51.038;13.692;2022-09-02T05:47:19;12.00;99.90
3758;DHT22;1894;51.038;13.692;2022-09-02T05:49:47;12.10;99.90
3758;DHT22;1894;51.038;13.692;2022-09-02T05:52:15;12.20;99.90
3758;DHT22;1894;51.038;13.692;2022-09-02T05:54:47;12.40;99.90
3758;DHT22;1894;51.038;13.692;2022-09-02T05:57:19;12.50;99.90
3758;DHT22;1894;51.038;13.692;2022-09-02T05:59:54;12.50;99.90
3758;DHT22;1894;51.038;13.692;2022-09-02T06:02:28;12.50;99.90
3758;DHT22;1894;51.038;13.692;2022-09-02T06:04:55;12.60;99.90
3758;DHT22;1894;51.038;13.692;2022-09-02T06:07:23;12.80;99.90
3758;DHT22;1894;51.038;13.692;2022-09-02T06:09:53;13.00;99.90
3758;DHT22;1894;51.038;13.692;2022-09-02T06:12:23;13.20;99.90
3758;DHT22;1894;51.038;13.692;2022-09-02T06:14:52;13.30;99.90
3758;DHT22;1894;51.038;13.692;2022-09-02T06:17:24;13.30;99.90
3758;DHT22;1894;51.038;13.692;2022-09-02T06:19:55;13.40;99.90
3758;DHT22;1894;51.038;13.692;2022-09-02T06:22:25;13.50;99.90
3758;DHT22;1894;51.038;13.692;2022-09-02T06:24:54;13.70;99.90
3758;DHT22;1894;51.038;13.692;2022-09-02T06:27:24;13.80;99.90
3758;DHT22;1894;51.038;13.692;2022-09-02T06:29:53;14.00;99.90
3758;DHT22;1894;51.038;13.692;2022-09-02T06:32:23;14.20;99.90
3758;DHT22;1894;51.038;13.692;2022-09-02T06:34:56;14.40;99.90
3758;DHT22;1894;51.038;13.692;2022-09-02T06:37:26;14.70;99.90
3758;DHT22;1894;51.038;13.692;2022-09-02T06:39:54;14.90;99.90
3758;DHT22;1894;51.038;13.692;2022-09-02T06:42:24;15.10;99.90
3758;DHT22;1894;51.038;13.692;2022-09-02T06:45:27;15.20;99.90
3758;DHT22;1894;51.038;13.692;2022-09-02T06:48:00;15.50;99.90
3758;DHT22;1894;51.038;13.692;2022-09-02T06:50:37;15.60;99.90
3758;DHT22;1894;51.038;13.692;2022-09-02T06:53:07;15.80;99.90
3758;DHT22;1894;51.038;13.692;2022-09-02T06:55:39;15.70;99.90
3758;DHT22;1894;51.038;13.692;2022-09-02T06:58:09;16.00;99.90
3758;DHT22;1894;51.038;13.692;2022-09-02T07:00:38;16.00;99.90
3758;DHT22;1894;51.038;13.692;2022-09-02T07:03:08;16.20;99.90
3758;DHT22;1894;51.038;13.692;2022-09-02T07:06:07;16.50;99.90
3758;DHT22;1894;51.038;13.692;2022-09-02T07:08:42;16.60;99.90
3758;DHT22;1894;51.038;13.692;2022-09-02T07:11:18;16.70;99.90
3758;DHT22;1894;51.038;13.692;2022-09-02T07:13:50;16.80;99.90
3758;DHT22;1894;51.038;13.692;2022-09-02T07:16:20;16.80;99.90
3758;DHT22;1894;51.038;13.692;2022-09-02T07:18:56;17.00;99.90
3758;DHT22;1894;51.038;13.692;2022-09-02T07:21:24;17.10;99.90
3758;DHT22;1894;51.038;13.692;2022-09-02T07:23:52;17.10;99.90
3758;DHT22;1894;51.038;13.692;2022-09-02T07:26:20;17.30;99.90
3758;DHT22;1894;51.038;13.692;2022-09-02T07:28:50;17.50;99.90
3758;DHT22;1894;51.038;13.692;2022-09-02T07:31:20;17.40;99.90
3758;DHT22;1894;51.038;13.692;2022-09-02T07:33:49;17.40;99.90
3758;DHT22;1894;51.038;13.692;2022-09-02T07:36:16;17.30;99.90
3758;DHT22;1894;51.038;13.692;2022-09-02T07:38:47;17.50;99.90
3758;DHT22;1894;51.038;13.692;2022-09-02T07:41:15;17.70;99.90
3758;DHT22;1894;51.038;13.692;2022-09-02T07:43:43;17.80;99.90
3758;DHT22;1894;51.038;13.692;2022-09-02T07:46:17;17.90;99.90
3758;DHT22;1894;51.038;13.692;2022-09-02T07:48:47;18.00;99.90
3758;DHT22;1894;51.038;13.692;2022-09-02T07:51:18;17.90;99.90
3758;DHT22;1894;51.038;13.692;2022-09-02T07:53:47;18.00;99.90
3758;DHT22;1894;51.038;13.692;2022-09-02T07:56:15;18.30;99.90
3758;DHT22;1894;51.038;13.692;2022-09-02T07:58:44;18.30;99.90
3758;DHT22;1894;51.038;13.692;2022-09-02T08:01:13;18.30;99.90
3758;DHT22;1894;51.038;13.692;2022-09-02T08:03:41;18.50;99.90
3758;DHT22;1894;51.038;13.692;2022-09-02T08:06:12;18.70;99.90
3758;DHT22;1894;51.038;13.692;2022-09-02T08:08:41;18.70;99.90
3758;DHT22;1894;51.038;13.692;2022-09-02T08:11:12;18.70;99.90
3758;DHT22;1894;51.038;13.692;2022-09-02T08:13:40;18.90;99.90
3758;DHT22;1894;51.038;13.692;2022-09-02T08:16:07;18.80;99.90
3758;DHT22;1894;51.038;13.692;2022-09-02T08:18:35;18.50;99.90
3758;DHT22;1894;51.038;13.692;2022-09-02T08:21:02;18.70;99.90
3758;DHT22;1894;51.038;13.692;2022-09-02T08:23:29;19.00;99.90
3758;DHT22;1894;51.038;13.692;2022-09-02T08:26:04;19.10;99.90
3758;DHT22;1894;51.038;13.692;2022-09-02T08:28:32;19.10;99.90
3758;DHT22;1894;51.038;13.692;2022-09-02T08:31:05;19.20;99.90
3758;DHT22;1894;51.038;13.692;2022-09-02T08:33:33;19.50;99.90
3758;DHT22;1894;51.038;13.692;2022-09-02T08:36:02;19.70;99.90
3758;DHT22;1894;51.038;13.692;2022-09-02T08:38:31;19.70;99.90
3758;DHT22;1894;51.038;13.692;2022-09-02T08:40:58;19.60;99.90
3758;DHT22;1894;51.038;13.692;2022-09-02T08:43:37;19.80;99.90
3758;DHT22;1894;51.038;13.692;2022-09-02T08:46:09;19.90;99.90
3758;DHT22;1894;51.038;13.692;2022-09-02T08:48:51;19.80;99.90
3758;DHT22;1894;51.038;13.692;2022-09-02T08:51:25;19.70;99.90
3758;DHT22;1894;51.038;13.692;2022-09-02T08:54:20;19.90;99.90
3758;DHT22;1894;51.038;13.692;2022-09-02T08:56:52;20.00;99.90
3758;DHT22;1894;51.038;13.692;2022-09-02T08:59:21;20.10;99.90
3758;DHT22;1894;51.038;13.692;2022-09-02T09:01:55;20.20;99.90
3758;DHT22;1894;51.038;13.692;2022-09-02T09:10:24;20.30;99.90
3758;DHT22;1894;51.038;13.692;2022-09-02T09:21:38;20.70;99.90
3758;DHT22;1894;51.038;13.692;2022-09-02T09:24:28;20.60;99.90
3758;DHT22;1894;51.038;13.692;2022-09-02T09:27:12;20.60;99.90
3758;DHT22;1894;51.038;13.692;2022-09-02T09:29:45;20.60;99.90
3758;DHT22;1894;51.038;13.692;2022-09-02T09:32:27;20.80;99.90
3758;DHT22;1894;51.038;13.692;2022-09-02T09:37:41;21.20;99.90
3758;DHT22;1894;51.038;13.692;2022-09-02T09:43:11;21.30;99.90
3758;DHT22;1894;51.038;13.692;2022-09-02T09:45:46;21.50;99.90
3758;DHT22;1894;51.038;13.692;2022-09-02T09:48:23;21.30;99.90
3758;DHT22;1894;51.038;13.692;2022-09-02T09:53:34;21.10;99.90
3758;DHT22;1894;51.038;13.692;2022-09-02T10:01:31;21.40;98.70
3758;DHT22;1894;51.038;13.692;2022-09-02T10:08:57;21.90;97.00
3758;DHT22;1894;51.038;13.692;2022-09-02T10:11:29;21.90;95.60
3758;DHT22;1894;51.038;13.692;2022-09-02T10:14:01;22.20;99.00
3758;DHT22;1894;51.038;13.692;2022-09-02T10:25:31;22.50;94.10
3758;DHT22;1894;51.038;13.692;2022-09-02T10:33:52;22.80;93.10
3758;DHT22;1894;51.038;13.692;2022-09-02T10:39:03;23.30;92.20
3758;DHT22;1894;51.038;13.692;2022-09-02T10:41:41;23.10;93.80
3758;DHT22;1894;51.038;13.692;2022-09-02T10:47:19;23.50;94.10
3758;DHT22;1894;51.038;13.692;2022-09-02T10:53:42;24.30;92.00
3758;DHT22;1894;51.038;13.692;2022-09-02T10:56:34;24.10;88.80
3758;DHT22;1894;51.038;13.692;2022-09-02T10:59:13;24.10;93.20
3758;DHT22;1894;51.038;13.692;2022-09-02T11:01:53;24.10;91.30
3758;DHT22;1894;51.038;13.692;2022-09-02T11:04:39;24.10;90.60
3758;DHT22;1894;51.038;13.692;2022-09-02T11:07:42;23.80;90.90
3758;DHT22;1894;51.038;13.692;2022-09-02T11:10:27;23.90;90.00
3758;DHT22;1894;51.038;13.692;2022-09-02T11:16:13;24.30;86.50
3758;DHT22;1894;51.038;13.692;2022-09-02T11:21:37;24.40;86.80
3758;DHT22;1894;51.038;13.692;2022-09-02T11:24:31;24.00;90.80
3758;DHT22;1894;51.038;13.692;2022-09-02T11:35:36;24.80;89.50
3758;DHT22;1894;51.038;13.692;2022-09-02T11:47:15;27.00;78.50
3758;DHT22;1894;51.038;13.692;2022-09-02T11:50:15;29.00;72.60
3758;DHT22;1894;51.038;13.692;2022-09-02T11:55:58;29.90;65.80
3758;DHT22;1894;51.038;13.692;2022-09-02T11:58:35;29.70;65.20
3758;DHT22;1894;51.038;13.692;2022-09-02T12:09:54;25.10;74.90
3758;DHT22;1894;51.038;13.692;2022-09-02T12:28:49;24.90;80.20
3758;DHT22;1894;51.038;13.692;2022-09-02T12:31:40;24.40;79.30
3758;DHT22;1894;51.038;13.692;2022-09-02T12:40:32;24.00;77.20
3758;DHT22;1894;51.038;13.692;2022-09-02T12:43:13;24.30;76.30
3758;DHT22;1894;51.038;13.692;2022-09-02T12:45:46;24.40;80.30
3758;DHT22;1894;51.038;13.692;2022-09-02T12:48:18;25.70;78.50
3758;DHT22;1894;51.038;13.692;2022-09-02T12:51:04;25.90;76.00
3758;DHT22;1894;51.038;13.692;2022-09-02T12:58:47;26.10;67.10
3758;DHT22;1894;51.038;13.692;2022-09-02T13:16:09;31.70;49.80
3758;DHT22;1894;51.038;13.692;2022-09-02T13:30:16;24.80;69.10
3758;DHT22;1894;51.038;13.692;2022-09-02T13:32:54;24.40;70.20
3758;DHT22;1894;51.038;13.692;2022-09-02T13:35:25;24.40;70.40
3758;DHT22;1894;51.038;13.692;2022-09-02T13:37:58;23.70;72.10
3758;DHT22;1894;51.038;13.692;2022-09-02T13:40:31;23.80;73.00
3758;DHT22;1894;51.038;13.692;2022-09-02T13:45:39;23.80;73.60
3758;DHT22;1894;51.038;13.692;2022-09-02T13:48:14;23.80;76.30
3758;DHT22;1894;51.038;13.692;2022-09-02T13:50:44;23.40;75.40
3758;DHT22;1894;51.038;13.692;2022-09-02T13:53:27;23.50;75.60
3758;DHT22;1894;51.038;13.692;2022-09-02T13:56:23;23.30;77.90
3758;DHT22;1894;51.038;13.692;2022-09-02T13:58:54;23.60;76.30
3758;DHT22;1894;51.038;13.692;2022-09-02T14:01:30;23.60;77.30
3758;DHT22;1894;51.038;13.692;2022-09-02T14:04:11;23.50;75.30
3758;DHT22;1894;51.038;13.692;2022-09-02T14:06:43;23.40;80.60
3758;DHT22;1894;51.038;13.692;2022-09-02T14:09:21;23.00;76.10
3758;DHT22;1894;51.038;13.692;2022-09-02T14:11:51;23.20;80.80
3758;DHT22;1894;51.038;13.692;2022-09-02T14:14:22;23.10;79.90
3758;DHT22;1894;51.038;13.692;2022-09-02T14:16:50;23.00;76.60
3758;DHT22;1894;51.038;13.692;2022-09-02T14:19:22;22.90;78.80
3758;DHT22;1894;51.038;13.692;2022-09-02T14:21:55;23.10;77.20
3758;DHT22;1894;51.038;13.692;2022-09-02T14:24:27;23.70;77.10
3758;DHT22;1894;51.038;13.692;2022-09-02T14:26:57;27.70;67.90
3758;DHT22;1894;51.038;13.692;2022-09-02T14:29:27;30.50;59.60
3758;DHT22;1894;51.038;13.692;2022-09-02T14:32:12;31.70;52.70
3758;DHT22;1894;51.038;13.692;2022-09-02T14:37:56;36.70;43.30
3758;DHT22;1894;51.038;13.692;2022-09-02T14:40:33;35.90;42.30
3758;DHT22;1894;51.038;13.692;2022-09-02T14:43:11;33.40;43.30
3758;DHT22;1894;51.038;13.692;2022-09-02T14:45:44;31.80;47.70
3758;DHT22;1894;51.038;13.692;2022-09-02T14:50:49;29.50;49.70
3758;DHT22;1894;51.038;13.692;2022-09-02T14:53:28;28.70;51.30
3758;DHT22;1894;51.038;13.692;2022-09-02T14:55:56;29.70;53.00
3758;DHT22;1894;51.038;13.692;2022-09-02T14:58:25;30.00;52.20
3758;DHT22;1894;51.038;13.692;2022-09-02T15:00:58;29.60;51.00
3758;DHT22;1894;51.038;13.692;2022-09-02T15:03:28;28.70;56.40
3758;DHT22;1894;51.038;13.692;2022-09-02T15:05:56;28.70;55.60
3758;DHT22;1894;51.038;13.692;2022-09-02T15:08:23;28.20;57.00
3758;DHT22;1894;51.038;13.692;2022-09-02T15:10:52;28.30;55.90
3758;DHT22;1894;51.038;13.692;2022-09-02T15:15:54;27.50;57.40
3758;DHT22;1894;51.038;13.692;2022-09-02T15:18:22;26.80;57.40
3758;DHT22;1894;51.038;13.692;2022-09-02T15:20:50;26.30;58.80
3758;DHT22;1894;51.038;13.692;2022-09-02T15:23:18;25.30;62.30
3758;DHT22;1894;51.038;13.692;2022-09-02T15:25:46;25.00;65.10
3758;DHT22;1894;51.038;13.692;2022-09-02T15:28:13;24.80;68.60
3758;DHT22;1894;51.038;13.692;2022-09-02T15:30:40;24.20;71.90
3758;DHT22;1894;51.038;13.692;2022-09-02T15:33:09;24.10;74.30
3758;DHT22;1894;51.038;13.692;2022-09-02T15:35:43;23.70;78.00
3758;DHT22;1894;51.038;13.692;2022-09-02T15:38:13;23.20;77.70
3758;DHT22;1894;51.038;13.692;2022-09-02T15:40:40;23.20;79.50
3758;DHT22;1894;51.038;13.692;2022-09-02T15:43:07;24.40;80.40
3758;DHT22;1894;51.038;13.692;2022-09-02T15:45:43;26.00;71.60
3758;DHT22;1894;51.038;13.692;2022-09-02T15:48:13;26.70;67.70
3758;DHT22;1894;51.038;13.692;2022-09-02T15:50:41;28.10;65.90
3758;DHT22;1894;51.038;13.692;2022-09-02T15:53:13;27.70;63.10
3758;DHT22;1894;51.038;13.692;2022-09-02T15:55:41;27.50;63.70
3758;DHT22;1894;51.038;13.692;2022-09-02T15:58:08;27.50;60.50
3758;DHT22;1894;51.038;13.692;2022-09-02T16:00:36;26.90;64.40
3758;DHT22;1894;51.038;13.692;2022-09-02T16:03:03;26.00;63.40
3758;DHT22;1894;51.038;13.692;2022-09-02T16:05:30;25.50;63.40
3758;DHT22;1894;51.038;13.692;2022-09-02T16:07:58;25.60;65.50
3758;DHT22;1894;51.038;13.692;2022-09-02T16:10:25;26.00;66.30
3758;DHT22;1894;51.038;13.692;2022-09-02T16:12:52;27.20;65.00
3758;DHT22;1894;51.038;13.692;2022-09-02T16:15:19;29.80;59.10
3758;DHT22;1894;51.038;13.692;2022-09-02T16:17:46;30.90;54.80
3758;DHT22;1894;51.038;13.692;2022-09-02T16:20:15;30.90;58.30
3758;DHT22;1894;51.038;13.692;2022-09-02T16:22:47;29.30;59.60
3758;DHT22;1894;51.038;13.692;2022-09-02T16:25:14;28.80;60.50
3758;DHT22;1894;51.038;13.692;2022-09-02T16:27:41;29.60;58.40
3758;DHT22;1894;51.038;13.692;2022-09-02T16:30:22;30.70;56.20
3758;DHT22;1894;51.038;13.692;2022-09-02T16:32:52;31.40;56.70
3758;DHT22;1894;51.038;13.692;2022-09-02T16:35:19;30.30;52.70
3758;DHT22;1894;51.038;13.692;2022-09-02T16:37:46;28.90;57.90
3758;DHT22;1894;51.038;13.692;2022-09-02T16:40:13;27.40;58.40
3758;DHT22;1894;51.038;13.692;2022-09-02T16:42:47;26.30;63.90
3758;DHT22;1894;51.038;13.692;2022-09-02T16:45:14;25.10;65.20
3758;DHT22;1894;51.038;13.692;2022-09-02T16:47:42;24.30;67.30
3758;DHT22;1894;51.038;13.692;2022-09-02T16:50:09;23.70;67.50
3758;DHT22;1894;51.038;13.692;2022-09-02T16:52:38;23.40;71.70
3758;DHT22;1894;51.038;13.692;2022-09-02T16:55:07;22.70;71.50
3758;DHT22;1894;51.038;13.692;2022-09-02T16:57:34;22.40;76.20
3758;DHT22;1894;51.038;13.692;2022-09-02T17:00:03;22.30;76.40
3758;DHT22;1894;51.038;13.692;2022-09-02T17:02:31;22.10;78.00
3758;DHT22;1894;51.038;13.692;2022-09-02T17:04:58;22.10;82.30
3758;DHT22;1894;51.038;13.692;2022-09-02T17:07:25;21.90;83.40
3758;DHT22;1894;51.038;13.692;2022-09-02T17:09:52;21.60;81.40
3758;DHT22;1894;51.038;13.692;2022-09-02T17:12:19;21.50;83.60
3758;DHT22;1894;51.038;13.692;2022-09-02T17:14:47;21.30;84.10
3758;DHT22;1894;51.038;13.692;2022-09-02T17:17:14;21.20;86.70
3758;DHT22;1894;51.038;13.692;2022-09-02T17:19:42;21.20;87.40
3758;DHT22;1894;51.038;13.692;2022-09-02T17:22:10;21.20;87.60
3758;DHT22;1894;51.038;13.692;2022-09-02T17:24:37;21.00;88.00
3758;DHT22;1894;51.038;13.692;2022-09-02T17:27:07;20.90;88.10
3758;DHT22;1894;51.038;13.692;2022-09-02T17:29:35;20.80;90.40
3758;DHT22;1894;51.038;13.692;2022-09-02T17:32:18;20.50;91.00
3758;DHT22;1894;51.038;13.692;2022-09-02T17:34:48;20.50;91.90
3758;DHT22;1894;51.038;13.692;2022-09-02T17:37:15;20.20;90.90
3758;DHT22;1894;51.038;13.692;2022-09-02T17:39:43;20.00;92.60
3758;DHT22;1894;51.038;13.692;2022-09-02T17:42:12;19.80;94.50
3758;DHT22;1894;51.038;13.692;2022-09-02T17:44:40;19.80;93.10
3758;DHT22;1894;51.038;13.692;2022-09-02T17:47:14;19.60;91.90
3758;DHT22;1894;51.038;13.692;2022-09-02T17:49:43;19.60;92.40
3758;DHT22;1894;51.038;13.692;2022-09-02T17:52:20;19.40;92.70
3758;DHT22;1894;51.038;13.692;2022-09-02T17:54:50;19.30;93.00
3758;DHT22;1894;51.038;13.692;2022-09-02T18:00:20;19.10;94.70
3758;DHT22;1894;51.038;13.692;2022-09-02T18:11:11;18.80;95.60
3758;DHT22;1894;51.038;13.692;2022-09-02T18:14:32;18.80;95.00
3758;DHT22;1894;51.038;13.692;2022-09-02T18:16:47;18.70;95.60
3758;DHT22;1894;51.038;13.692;2022-09-02T18:23:03;18.60;96.00
3758;DHT22;1894;51.038;13.692;2022-09-02T18:26:04;18.50;96.00
3758;DHT22;1894;51.038;13.692;2022-09-02T18:28:44;18.50;98.50
3758;DHT22;1894;51.038;13.692;2022-09-02T18:31:29;18.40;97.10
3758;DHT22;1894;51.038;13.692;2022-09-02T18:37:08;18.40;97.30
3758;DHT22;1894;51.038;13.692;2022-09-02T18:46:01;18.40;97.80
3758;DHT22;1894;51.038;13.692;2022-09-02T18:48:34;18.40;98.90
3758;DHT22;1894;51.038;13.692;2022-09-02T18:51:12;18.30;97.80
3758;DHT22;1894;51.038;13.692;2022-09-02T18:53:48;18.30;97.50
3758;DHT22;1894;51.038;13.692;2022-09-02T18:56:18;18.30;98.20
3758;DHT22;1894;51.038;13.692;2022-09-02T18:58:56;18.30;98.00
3758;DHT22;1894;51.038;13.692;2022-09-02T19:01:31;18.20;98.60
3758;DHT22;1894;51.038;13.692;2022-09-02T19:04:01;18.20;98.30
3758;DHT22;1894;51.038;13.692;2022-09-02T19:06:31;18.20;98.30
3758;DHT22;1894;51.038;13.692;2022-09-02T19:09:07;18.10;98.60
3758;DHT22;1894;51.038;13.692;2022-09-02T19:11:39;18.10;99.10
3758;DHT22;1894;51.038;13.692;2022-09-02T19:14:23;18.00;99.00
3758;DHT22;1894;51.038;13.692;2022-09-02T19:16:56;18.00;99.40
3758;DHT22;1894;51.038;13.692;2022-09-02T19:19:24;18.00;99.80
3758;DHT22;1894;51.038;13.692;2022-09-02T19:21:55;18.00;99.90